sensor_id;sensor_type;location;lat;lon;timestamp;temperature;humidity
54680;DHT22;40578;53.178;5.846;2023-09-19T00:00:38;14.40;99.90
54680;DHT22;40578;53.178;5.846;2023-09-19T00:03:05;14.30;99.90
54680;DHT22;40578;53.178;5.846;2023-09-19T00:05:34;14.30;99.90
54680;DHT22;40578;53.178;5.846;2023-09-19T00:08:00;14.30;99.90
54680;DHT22;40578;53.178;5.846;2023-09-19T00:10:27;14.20;99.90
54680;DHT22;40578;53.178;5.846;2023-09-19T00:12:59;14.20;99.90
54680;DHT22;40578;53.178;5.846;2023-09-19T00:15:28;14.20;99.90
54680;DHT22;40578;53.178;5.846;2023-09-19T00:17:57;14.20;99.90
54680;DHT22;40578;53.178;5.846;2023-09-19T00:20:23;14.30;99.90
54680;DHT22;40578;53.178;5.846;2023-09-19T00:22:50;14.30;99.90
54680;DHT22;40578;53.178;5.846;2023-09-19T00:25:17;14.30;99.90
54680;DHT22;40578;53.178;5.846;2023-09-19T00:27:43;14.40;99.90
54680;DHT22;40578;53.178;5.846;2023-09-19T00:30:11;14.30;99.90
54680;DHT22;40578;53.178;5.846;2023-09-19T00:32:43;14.30;99.90
54680;DHT22;40578;53.178;5.846;2023-09-19T00:35:10;14.30;99.90
54680;DHT22;40578;53.178;5.846;2023-09-19T00:37:36;14.20;99.90
54680;DHT22;40578;53.178;5.846;2023-09-19T00:40:03;14.20;99.90
54680;DHT22;40578;53.178;5.846;2023-09-19T00:42:31;14.10;99.90
54680;DHT22;40578;53.178;5.846;2023-09-19T00:44:57;14.10;99.90
54680;DHT22;40578;53.178;5.846;2023-09-19T00:47:22;14.10;99.90
54680;DHT22;40578;53.178;5.846;2023-09-19T00:49:48;14.00;99.90
54680;DHT22;40578;53.178;5.846;2023-09-19T00:52:14;14.00;99.90
54680;DHT22;40578;53.178;5.846;2023-09-19T00:54:40;14.00;99.90
54680;DHT22;40578;53.178;5.846;2023-09-19T00:57:06;14.00;99.90
54680;DHT22;40578;53.178;5.846;2023-09-19T00:59:33;14.00;99.90
54680;DHT22;40578;53.178;5.846;2023-09-19T01:02:02;14.00;99.90
54680;DHT22;40578;53.178;5.846;2023-09-19T01:04:28;13.80;99.90
54680;DHT22;40578;53.178;5.846;2023-09-19T01:06:53;13.70;99.90
54680;DHT22;40578;53.178;5.846;2023-09-19T01:09:20;13.70;99.90
54680;DHT22;40578;53.178;5.846;2023-09-19T01:11:48;13.70;99.90
54680;DHT22;40578;53.178;5.846;2023-09-19T01:14:54;13.60;99.90
54680;DHT22;40578;53.178;5.846;2023-09-19T01:17:30;13.60;99.90
54680;DHT22;40578;53.178;5.846;2023-09-19T01:23:00;13.50;99.90
54680;DHT22;40578;53.178;5.846;2023-09-19T01:25:33;13.50;99.90
54680;DHT22;40578;53.178;5.846;2023-09-19T01:28:39;13.50;99.90
54680;DHT22;40578;53.178;5.846;2023-09-19T01:31:11;13.50;99.90
54680;DHT22;40578;53.178;5.846;2023-09-19T01:33:58;13.60;99.90
54680;DHT22;40578;53.178;5.846;2023-09-19T01:36:34;13.60;99.90
54680;DHT22;40578;53.178;5.846;2023-09-19T01:39:05;13.60;99.90
54680;DHT22;40578;53.178;5.846;2023-09-19T01:41:49;13.60;99.90
54680;DHT22;40578;53.178;5.846;2023-09-19T01:45:27;13.60;99.90
54680;DHT22;40578;53.178;5.846;2023-09-19T01:47:35;13.50;99.90
54680;DHT22;40578;53.178;5.846;2023-09-19T01:50:26;13.60;99.90
54680;DHT22;40578;53.178;5.846;2023-09-19T01:52:59;13.60;99.90
54680;DHT22;40578;53.178;5.846;2023-09-19T01:55:30;13.50;99.90
54680;DHT22;40578;53.178;5.846;2023-09-19T01:58:08;13.50;99.90
54680;DHT22;40578;53.178;5.846;2023-09-19T02:00:40;13.50;99.90
54680;DHT22;40578;53.178;5.846;2023-09-19T02:03:09;13.40;99.90
54680;DHT22;40578;53.178;5.846;2023-09-19T02:05:34;13.30;99.90
54680;DHT22;40578;53.178;5.846;2023-09-19T02:08:00;13.60;99.90
54680;DHT22;40578;53.178;5.846;2023-09-19T02:10:26;13.60;99.90
54680;DHT22;40578;53.178;5.846;2023-09-19T02:12:52;13.50;99.90
54680;DHT22;40578;53.178;5.846;2023-09-19T02:15:18;13.50;99.90
54680;DHT22;40578;53.178;5.846;2023-09-19T02:17:44;13.50;99.90
54680;DHT22;40578;53.178;5.846;2023-09-19T02:20:12;13.50;99.90
54680;DHT22;40578;53.178;5.846;2023-09-19T02:22:38;13.50;99.90
54680;DHT22;40578;53.178;5.846;2023-09-19T02:25:04;13.50;99.90
54680;DHT22;40578;53.178;5.846;2023-09-19T02:27:30;13.50;99.90
54680;DHT22;40578;53.178;5.846;2023-09-19T02:29:56;13.50;99.90
54680;DHT22;40578;53.178;5.846;2023-09-19T02:32:23;14.50;99.90
54680;DHT22;40578;53.178;5.846;2023-09-19T02:34:48;13.60;99.90
54680;DHT22;40578;53.178;5.846;2023-09-19T02:37:14;13.80;99.90
54680;DHT22;40578;53.178;5.846;2023-09-19T02:39:42;13.90;99.90
54680;DHT22;40578;53.178;5.846;2023-09-19T02:42:07;13.90;99.90
54680;DHT22;40578;53.178;5.846;2023-09-19T02:44:33;14.00;99.90
54680;DHT22;40578;53.178;5.846;2023-09-19T02:46:59;13.90;99.90
54680;DHT22;40578;53.178;5.846;2023-09-19T02:49:25;14.20;99.90
54680;DHT22;40578;53.178;5.846;2023-09-19T02:51:50;14.00;99.90
54680;DHT22;40578;53.178;5.846;2023-09-19T02:54:17;13.80;99.90
54680;DHT22;40578;53.178;5.846;2023-09-19T02:56:43;13.90;99.90
54680;DHT22;40578;53.178;5.846;2023-09-19T02:59:09;13.90;99.90
54680;DHT22;40578;53.178;5.846;2023-09-19T03:01:36;13.90;99.90
54680;DHT22;40578;53.178;5.846;2023-09-19T03:04:03;13.80;99.90
54680;DHT22;40578;53.178;5.846;2023-09-19T03:06:34;13.80;99.90
54680;DHT22;40578;53.178;5.846;2023-09-19T03:08:59;13.70;99.90
54680;DHT22;40578;53.178;5.846;2023-09-19T03:11:25;13.70;99.90
54680;DHT22;40578;53.178;5.846;2023-09-19T03:13:54;13.70;99.90
54680;DHT22;40578;53.178;5.846;2023-09-19T03:16:20;13.80;99.90
54680;DHT22;40578;53.178;5.846;2023-09-19T03:18:50;13.70;99.90
54680;DHT22;40578;53.178;5.846;2023-09-19T03:21:17;13.70;99.90
54680;DHT22;40578;53.178;5.846;2023-09-19T03:23:43;13.80;99.90
54680;DHT22;40578;53.178;5.846;2023-09-19T03:26:13;13.90;99.90
54680;DHT22;40578;53.178;5.846;2023-09-19T03:28:39;13.90;99.90
54680;DHT22;40578;53.178;5.846;2023-09-19T03:31:06;13.90;99.90
54680;DHT22;40578;53.178;5.846;2023-09-19T03:33:33;13.90;99.90
54680;DHT22;40578;53.178;5.846;2023-09-19T03:36:00;13.90;99.90
54680;DHT22;40578;53.178;5.846;2023-09-19T03:38:27;13.90;99.90
54680;DHT22;40578;53.178;5.846;2023-09-19T03:40:54;13.80;99.90
54680;DHT22;40578;53.178;5.846;2023-09-19T03:43:20;13.80;99.90
54680;DHT22;40578;53.178;5.846;2023-09-19T03:45:45;13.80;99.90
54680;DHT22;40578;53.178;5.846;2023-09-19T03:48:12;13.80;99.90
54680;DHT22;40578;53.178;5.846;2023-09-19T03:50:39;13.80;99.90
54680;DHT22;40578;53.178;5.846;2023-09-19T03:53:04;13.80;99.90
54680;DHT22;40578;53.178;5.846;2023-09-19T03:55:32;13.80;99.90
54680;DHT22;40578;53.178;5.846;2023-09-19T03:57:58;13.90;99.90
54680;DHT22;40578;53.178;5.846;2023-09-19T04:00:24;13.80;99.90
54680;DHT22;40578;53.178;5.846;2023-09-19T04:02:52;13.80;99.90
54680;DHT22;40578;53.178;5.846;2023-09-19T04:05:18;13.80;99.90
54680;DHT22;40578;53.178;5.846;2023-09-19T04:07:44;13.80;99.90
54680;DHT22;40578;53.178;5.846;2023-09-19T04:10:10;13.80;99.90
54680;DHT22;40578;53.178;5.846;2023-09-19T04:12:40;13.80;99.90
54680;DHT22;40578;53.178;5.846;2023-09-19T04:15:06;13.90;99.90
54680;DHT22;40578;53.178;5.846;2023-09-19T04:17:33;13.90;99.90
54680;DHT22;40578;53.178;5.846;2023-09-19T04:19:59;13.90;99.90
54680;DHT22;40578;53.178;5.846;2023-09-19T04:22:25;13.90;99.90
54680;DHT22;40578;53.178;5.846;2023-09-19T04:24:50;13.90;99.90
54680;DHT22;40578;53.178;5.846;2023-09-19T04:27:16;13.90;99.90
54680;DHT22;40578;53.178;5.846;2023-09-19T04:29:42;14.00;99.90
54680;DHT22;40578;53.178;5.846;2023-09-19T04:32:08;14.10;99.90
54680;DHT22;40578;53.178;5.846;2023-09-19T04:34:35;14.00;99.90
54680;DHT22;40578;53.178;5.846;2023-09-19T04:37:01;14.00;99.90
54680;DHT22;40578;53.178;5.846;2023-09-19T04:39:27;14.10;99.90
54680;DHT22;40578;53.178;5.846;2023-09-19T04:41:54;14.20;99.90
54680;DHT22;40578;53.178;5.846;2023-09-19T04:44:20;14.20;99.90
54680;DHT22;40578;53.178;5.846;2023-09-19T04:46:47;14.20;99.90
54680;DHT22;40578;53.178;5.846;2023-09-19T04:49:13;14.10;99.90
54680;DHT22;40578;53.178;5.846;2023-09-19T04:51:39;14.20;99.90
54680;DHT22;40578;53.178;5.846;2023-09-19T04:54:05;14.20;99.90
54680;DHT22;40578;53.178;5.846;2023-09-19T04:56:32;14.10;99.90
54680;DHT22;40578;53.178;5.846;2023-09-19T04:58:58;14.20;99.90
54680;DHT22;40578;53.178;5.846;2023-09-19T05:01:24;14.20;99.90
54680;DHT22;40578;53.178;5.846;2023-09-19T05:03:50;14.20;99.90
54680;DHT22;40578;53.178;5.846;2023-09-19T05:06:19;14.20;99.90
54680;DHT22;40578;53.178;5.846;2023-09-19T05:08:48;14.20;99.90
54680;DHT22;40578;53.178;5.846;2023-09-19T05:11:21;14.20;99.90
54680;DHT22;40578;53.178;5.846;2023-09-19T05:13:48;14.30;99.90
54680;DHT22;40578;53.178;5.846;2023-09-19T05:16:18;14.30;99.90
54680;DHT22;40578;53.178;5.846;2023-09-19T05:18:44;14.30;99.90
54680;DHT22;40578;53.178;5.846;2023-09-19T05:21:10;14.30;99.90
54680;DHT22;40578;53.178;5.846;2023-09-19T05:23:35;14.50;99.90
54680;DHT22;40578;53.178;5.846;2023-09-19T05:26:02;14.30;99.90
54680;DHT22;40578;53.178;5.846;2023-09-19T05:28:29;14.30;99.90
54680;DHT22;40578;53.178;5.846;2023-09-19T05:30:55;14.40;99.90
54680;DHT22;40578;53.178;5.846;2023-09-19T05:33:21;14.30;99.90
54680;DHT22;40578;53.178;5.846;2023-09-19T05:35:50;14.30;99.90
54680;DHT22;40578;53.178;5.846;2023-09-19T05:38:15;14.40;99.90
54680;DHT22;40578;53.178;5.846;2023-09-19T05:40:45;14.20;99.90
54680;DHT22;40578;53.178;5.846;2023-09-19T05:43:10;14.60;99.90
54680;DHT22;40578;53.178;5.846;2023-09-19T05:45:36;14.20;99.90
54680;DHT22;40578;53.178;5.846;2023-09-19T05:48:11;14.60;99.90
54680;DHT22;40578;53.178;5.846;2023-09-19T05:50:39;14.30;99.90
54680;DHT22;40578;53.178;5.846;2023-09-19T05:53:05;14.40;99.90
54680;DHT22;40578;53.178;5.846;2023-09-19T05:55:32;14.40;99.90
54680;DHT22;40578;53.178;5.846;2023-09-19T05:57:57;14.40;99.90
54680;DHT22;40578;53.178;5.846;2023-09-19T06:00:24;14.50;99.90
54680;DHT22;40578;53.178;5.846;2023-09-19T06:02:52;14.60;99.90
54680;DHT22;40578;53.178;5.846;2023-09-19T06:05:18;14.40;99.90
54680;DHT22;40578;53.178;5.846;2023-09-19T06:07:43;14.40;99.90
54680;DHT22;40578;53.178;5.846;2023-09-19T06:10:09;14.40;99.90
54680;DHT22;40578;53.178;5.846;2023-09-19T06:12:42;14.40;99.90
54680;DHT22;40578;53.178;5.846;2023-09-19T06:15:15;14.50;99.90
54680;DHT22;40578;53.178;5.846;2023-09-19T06:17:42;14.90;99.90
54680;DHT22;40578;53.178;5.846;2023-09-19T06:20:08;14.40;99.90
54680;DHT22;40578;53.178;5.846;2023-09-19T06:22:41;14.50;99.90
54680;DHT22;40578;53.178;5.846;2023-09-19T06:25:08;14.80;99.90
54680;DHT22;40578;53.178;5.846;2023-09-19T06:27:37;14.50;99.90
54680;DHT22;40578;53.178;5.846;2023-09-19T06:30:02;14.50;99.90
54680;DHT22;40578;53.178;5.846;2023-09-19T06:32:28;14.50;99.90
54680;DHT22;40578;53.178;5.846;2023-09-19T06:34:54;14.60;99.90
54680;DHT22;40578;53.178;5.846;2023-09-19T06:37:20;14.60;99.90
54680;DHT22;40578;53.178;5.846;2023-09-19T06:39:47;14.60;99.90
54680;DHT22;40578;53.178;5.846;2023-09-19T06:42:15;14.60;99.90
54680;DHT22;40578;53.178;5.846;2023-09-19T06:44:43;14.70;99.90
54680;DHT22;40578;53.178;5.846;2023-09-19T06:47:08;14.60;99.90
54680;DHT22;40578;53.178;5.846;2023-09-19T06:49:35;14.70;99.90
54680;DHT22;40578;53.178;5.846;2023-09-19T06:52:01;14.70;99.90
54680;DHT22;40578;53.178;5.846;2023-09-19T06:54:27;14.70;99.90
54680;DHT22;40578;53.178;5.846;2023-09-19T06:56:57;14.80;99.90
54680;DHT22;40578;53.178;5.846;2023-09-19T06:59:24;14.90;99.90
54680;DHT22;40578;53.178;5.846;2023-09-19T07:01:50;14.90;99.90
54680;DHT22;40578;53.178;5.846;2023-09-19T07:04:16;14.90;99.90
54680;DHT22;40578;53.178;5.846;2023-09-19T07:06:49;15.00;99.90
54680;DHT22;40578;53.178;5.846;2023-09-19T07:09:15;15.00;99.90
54680;DHT22;40578;53.178;5.846;2023-09-19T07:11:41;15.20;99.90
54680;DHT22;40578;53.178;5.846;2023-09-19T07:14:08;15.10;99.90
54680;DHT22;40578;53.178;5.846;2023-09-19T07:16:37;15.30;99.90
54680;DHT22;40578;53.178;5.846;2023-09-19T07:19:04;15.10;99.90
54680;DHT22;40578;53.178;5.846;2023-09-19T07:21:30;15.20;99.90
54680;DHT22;40578;53.178;5.846;2023-09-19T07:23:59;15.20;99.90
54680;DHT22;40578;53.178;5.846;2023-09-19T07:26:26;15.20;99.90
54680;DHT22;40578;53.178;5.846;2023-09-19T07:28:52;15.10;99.90
54680;DHT22;40578;53.178;5.846;2023-09-19T07:31:18;15.10;99.90
54680;DHT22;40578;53.178;5.846;2023-09-19T07:33:44;15.20;99.90
54680;DHT22;40578;53.178;5.846;2023-09-19T07:36:11;15.20;99.90
54680;DHT22;40578;53.178;5.846;2023-09-19T07:38:42;15.30;99.90
54680;DHT22;40578;53.178;5.846;2023-09-19T07:41:08;15.40;99.90
54680;DHT22;40578;53.178;5.846;2023-09-19T07:43:35;15.50;99.90
54680;DHT22;40578;53.178;5.846;2023-09-19T07:46:05;15.50;99.90
54680;DHT22;40578;53.178;5.846;2023-09-19T07:48:33;15.60;99.90
54680;DHT22;40578;53.178;5.846;2023-09-19T07:51:02;15.70;99.90
54680;DHT22;40578;53.178;5.846;2023-09-19T07:53:29;15.80;99.90
54680;DHT22;40578;53.178;5.846;2023-09-19T07:56:05;15.70;99.90
54680;DHT22;40578;53.178;5.846;2023-09-19T07:58:31;15.80;99.90
54680;DHT22;40578;53.178;5.846;2023-09-19T08:01:05;15.80;99.90
54680;DHT22;40578;53.178;5.846;2023-09-19T08:03:35;15.80;99.90
54680;DHT22;40578;53.178;5.846;2023-09-19T08:06:05;15.80;99.90
54680;DHT22;40578;53.178;5.846;2023-09-19T08:08:32;15.80;99.90
54680;DHT22;40578;53.178;5.846;2023-09-19T08:10:59;15.90;99.90
54680;DHT22;40578;53.178;5.846;2023-09-19T08:13:26;15.90;99.90
54680;DHT22;40578;53.178;5.846;2023-09-19T08:15:52;15.90;99.90
54680;DHT22;40578;53.178;5.846;2023-09-19T08:18:19;15.90;99.90
54680;DHT22;40578;53.178;5.846;2023-09-19T08:20:52;16.00;99.90
54680;DHT22;40578;53.178;5.846;2023-09-19T08:23:18;16.10;99.90
54680;DHT22;40578;53.178;5.846;2023-09-19T08:25:46;16.10;99.90
54680;DHT22;40578;53.178;5.846;2023-09-19T08:28:12;16.10;99.90
54680;DHT22;40578;53.178;5.846;2023-09-19T08:30:40;16.20;99.90
54680;DHT22;40578;53.178;5.846;2023-09-19T08:33:06;16.20;99.90
54680;DHT22;40578;53.178;5.846;2023-09-19T08:35:33;16.30;99.90
54680;DHT22;40578;53.178;5.846;2023-09-19T08:37:58;16.40;99.90
54680;DHT22;40578;53.178;5.846;2023-09-19T08:40:30;16.40;99.90
54680;DHT22;40578;53.178;5.846;2023-09-19T08:42:59;16.50;99.90
54680;DHT22;40578;53.178;5.846;2023-09-19T08:45:26;16.50;99.90
54680;DHT22;40578;53.178;5.846;2023-09-19T08:48:46;16.70;99.90
54680;DHT22;40578;53.178;5.846;2023-09-19T08:51:12;16.70;99.90
54680;DHT22;40578;53.178;5.846;2023-09-19T08:56:12;16.70;99.90
54680;DHT22;40578;53.178;5.846;2023-09-19T08:58:57;16.70;99.90
54680;DHT22;40578;53.178;5.846;2023-09-19T09:01:24;16.80;99.90
54680;DHT22;40578;53.178;5.846;2023-09-19T09:03:54;16.70;99.90
54680;DHT22;40578;53.178;5.846;2023-09-19T09:06:20;16.80;99.90
54680;DHT22;40578;53.178;5.846;2023-09-19T09:08:46;16.80;99.90
54680;DHT22;40578;53.178;5.846;2023-09-19T09:11:15;16.80;99.90
54680;DHT22;40578;53.178;5.846;2023-09-19T09:13:47;16.80;99.90
54680;DHT22;40578;53.178;5.846;2023-09-19T09:16:14;16.80;99.90
54680;DHT22;40578;53.178;5.846;2023-09-19T09:18:44;16.90;99.90
54680;DHT22;40578;53.178;5.846;2023-09-19T09:21:11;17.00;99.90
54680;DHT22;40578;53.178;5.846;2023-09-19T09:23:36;17.10;99.90
54680;DHT22;40578;53.178;5.846;2023-09-19T09:26:02;17.20;99.90
54680;DHT22;40578;53.178;5.846;2023-09-19T09:28:30;17.20;99.90
54680;DHT22;40578;53.178;5.846;2023-09-19T09:30:57;17.30;99.90
54680;DHT22;40578;53.178;5.846;2023-09-19T09:33:33;17.40;99.90
54680;DHT22;40578;53.178;5.846;2023-09-19T09:36:00;17.30;99.90
54680;DHT22;40578;53.178;5.846;2023-09-19T09:38:27;17.40;99.90
54680;DHT22;40578;53.178;5.846;2023-09-19T09:40:54;17.40;99.90
54680;DHT22;40578;53.178;5.846;2023-09-19T09:43:36;17.50;99.90
54680;DHT22;40578;53.178;5.846;2023-09-19T09:46:18;17.40;99.90
54680;DHT22;40578;53.178;5.846;2023-09-19T09:49:07;17.50;99.90
54680;DHT22;40578;53.178;5.846;2023-09-19T09:52:05;17.70;99.90
54680;DHT22;40578;53.178;5.846;2023-09-19T09:54:34;17.70;99.90
54680;DHT22;40578;53.178;5.846;2023-09-19T09:59:57;17.60;99.90
54680;DHT22;40578;53.178;5.846;2023-09-19T10:02:29;17.40;99.90
54680;DHT22;40578;53.178;5.846;2023-09-19T10:04:58;17.40;99.90
54680;DHT22;40578;53.178;5.846;2023-09-19T10:07:40;17.50;99.90
54680;DHT22;40578;53.178;5.846;2023-09-19T10:10:15;17.60;99.90
54680;DHT22;40578;53.178;5.846;2023-09-19T10:12:56;17.70;99.90
54680;DHT22;40578;53.178;5.846;2023-09-19T10:15:32;17.70;99.90
54680;DHT22;40578;53.178;5.846;2023-09-19T10:18:00;17.70;99.90
54680;DHT22;40578;53.178;5.846;2023-09-19T10:20:28;17.60;99.90
54680;DHT22;40578;53.178;5.846;2023-09-19T10:23:10;17.70;99.90
54680;DHT22;40578;53.178;5.846;2023-09-19T10:25:42;17.60;99.90
54680;DHT22;40578;53.178;5.846;2023-09-19T10:28:09;17.60;99.90
54680;DHT22;40578;53.178;5.846;2023-09-19T10:30:44;17.60;99.90
54680;DHT22;40578;53.178;5.846;2023-09-19T10:33:15;17.50;99.90
54680;DHT22;40578;53.178;5.846;2023-09-19T10:35:46;17.40;99.90
54680;DHT22;40578;53.178;5.846;2023-09-19T10:38:14;17.60;99.90
54680;DHT22;40578;53.178;5.846;2023-09-19T10:40:40;17.60;99.90
54680;DHT22;40578;53.178;5.846;2023-09-19T10:43:12;17.50;99.90
54680;DHT22;40578;53.178;5.846;2023-09-19T10:45:39;17.40;99.90
54680;DHT22;40578;53.178;5.846;2023-09-19T10:48:06;17.40;99.90
54680;DHT22;40578;53.178;5.846;2023-09-19T10:50:55;17.40;99.90
54680;DHT22;40578;53.178;5.846;2023-09-19T10:53:26;17.30;99.90
54680;DHT22;40578;53.178;5.846;2023-09-19T10:55:57;17.20;99.90
54680;DHT22;40578;53.178;5.846;2023-09-19T10:58:29;17.20;99.90
54680;DHT22;40578;53.178;5.846;2023-09-19T11:01:00;17.60;99.90
54680;DHT22;40578;53.178;5.846;2023-09-19T11:03:38;17.40;99.90
54680;DHT22;40578;53.178;5.846;2023-09-19T11:06:12;17.70;99.90
54680;DHT22;40578;53.178;5.846;2023-09-19T11:30:51;17.40;99.90
54680;DHT22;40578;53.178;5.846;2023-09-19T11:33:23;17.40;99.90
54680;DHT22;40578;53.178;5.846;2023-09-19T11:43:51;17.20;99.90
54680;DHT22;40578;53.178;5.846;2023-09-19T11:46:17;16.90;99.90
54680;DHT22;40578;53.178;5.846;2023-09-19T11:48:51;16.90;99.90
54680;DHT22;40578;53.178;5.846;2023-09-19T11:51:24;16.70;99.90
54680;DHT22;40578;53.178;5.846;2023-09-19T11:53:58;16.30;99.90
54680;DHT22;40578;53.178;5.846;2023-09-19T11:56:27;16.30;99.90
54680;DHT22;40578;53.178;5.846;2023-09-19T11:58:55;16.20;99.90
54680;DHT22;40578;53.178;5.846;2023-09-19T12:01:32;16.20;99.90
54680;DHT22;40578;53.178;5.846;2023-09-19T12:03:59;16.20;99.90
54680;DHT22;40578;53.178;5.846;2023-09-19T12:06:26;16.20;99.90
54680;DHT22;40578;53.178;5.846;2023-09-19T12:08:52;16.40;99.90
54680;DHT22;40578;53.178;5.846;2023-09-19T12:11:23;16.50;99.90
54680;DHT22;40578;53.178;5.846;2023-09-19T12:13:50;16.70;99.90
54680;DHT22;40578;53.178;5.846;2023-09-19T12:16:18;16.90;99.90
54680;DHT22;40578;53.178;5.846;2023-09-19T12:18:47;16.90;99.90
54680;DHT22;40578;53.178;5.846;2023-09-19T12:24:06;17.00;99.90
54680;DHT22;40578;53.178;5.846;2023-09-19T12:26:42;17.00;99.90
54680;DHT22;40578;53.178;5.846;2023-09-19T12:29:18;17.10;99.90
54680;DHT22;40578;53.178;5.846;2023-09-19T12:32:02;17.20;99.90
54680;DHT22;40578;53.178;5.846;2023-09-19T12:34:30;17.20;99.90
54680;DHT22;40578;53.178;5.846;2023-09-19T12:39:45;17.20;99.90
54680;DHT22;40578;53.178;5.846;2023-09-19T12:42:23;17.10;99.90
54680;DHT22;40578;53.178;5.846;2023-09-19T12:44:53;17.10;99.90
54680;DHT22;40578;53.178;5.846;2023-09-19T12:47:23;17.10;99.90
54680;DHT22;40578;53.178;5.846;2023-09-19T12:50:09;16.90;99.90
54680;DHT22;40578;53.178;5.846;2023-09-19T12:52:46;16.80;99.90
54680;DHT22;40578;53.178;5.846;2023-09-19T12:58:09;16.40;99.90
54680;DHT22;40578;53.178;5.846;2023-09-19T13:00:42;16.50;99.90
54680;DHT22;40578;53.178;5.846;2023-09-19T13:03:18;16.70;99.90
54680;DHT22;40578;53.178;5.846;2023-09-19T13:05:55;16.80;99.90
54680;DHT22;40578;53.178;5.846;2023-09-19T13:08:24;16.90;99.90
54680;DHT22;40578;53.178;5.846;2023-09-19T13:13:36;17.00;99.90
54680;DHT22;40578;53.178;5.846;2023-09-19T13:16:03;17.00;99.90
54680;DHT22;40578;53.178;5.846;2023-09-19T13:18:42;17.00;99.90
54680;DHT22;40578;53.178;5.846;2023-09-19T13:21:11;17.10;99.90
54680;DHT22;40578;53.178;5.846;2023-09-19T13:23:44;17.10;99.90
54680;DHT22;40578;53.178;5.846;2023-09-19T13:26:10;17.10;99.90
54680;DHT22;40578;53.178;5.846;2023-09-19T13:28:38;17.20;99.90
54680;DHT22;40578;53.178;5.846;2023-09-19T13:31:04;17.30;99.90
54680;DHT22;40578;53.178;5.846;2023-09-19T13:33:30;17.40;99.90
54680;DHT22;40578;53.178;5.846;2023-09-19T13:35:56;17.50;99.90
54680;DHT22;40578;53.178;5.846;2023-09-19T13:38:22;17.60;99.90
54680;DHT22;40578;53.178;5.846;2023-09-19T13:40:48;17.70;99.90
54680;DHT22;40578;53.178;5.846;2023-09-19T13:43:18;17.60;99.90
54680;DHT22;40578;53.178;5.846;2023-09-19T13:45:43;17.60;99.90
54680;DHT22;40578;53.178;5.846;2023-09-19T13:48:09;17.60;99.90
54680;DHT22;40578;53.178;5.846;2023-09-19T13:50:37;17.50;99.90
54680;DHT22;40578;53.178;5.846;2023-09-19T13:53:08;17.50;99.90
54680;DHT22;40578;53.178;5.846;2023-09-19T13:55:34;17.50;99.90
54680;DHT22;40578;53.178;5.846;2023-09-19T13:58:00;17.60;99.90
54680;DHT22;40578;53.178;5.846;2023-09-19T14:00:26;17.60;99.90
54680;DHT22;40578;53.178;5.846;2023-09-19T14:02:52;17.50;99.90
54680;DHT22;40578;53.178;5.846;2023-09-19T14:05:18;17.40;99.90
54680;DHT22;40578;53.178;5.846;2023-09-19T14:07:44;17.30;99.90
54680;DHT22;40578;53.178;5.846;2023-09-19T14:10:11;17.20;99.90
54680;DHT22;40578;53.178;5.846;2023-09-19T14:12:38;17.20;99.90
54680;DHT22;40578;53.178;5.846;2023-09-19T14:15:06;17.10;99.90
54680;DHT22;40578;53.178;5.846;2023-09-19T14:17:33;17.00;99.90
54680;DHT22;40578;53.178;5.846;2023-09-19T14:19:59;17.10;99.90
54680;DHT22;40578;53.178;5.846;2023-09-19T14:22:25;17.10;99.90
54680;DHT22;40578;53.178;5.846;2023-09-19T14:24:50;17.10;99.90
54680;DHT22;40578;53.178;5.846;2023-09-19T14:27:17;17.10;99.90
54680;DHT22;40578;53.178;5.846;2023-09-19T14:29:42;17.20;99.90
54680;DHT22;40578;53.178;5.846;2023-09-19T14:32:08;17.30;99.90
54680;DHT22;40578;53.178;5.846;2023-09-19T14:34:34;17.30;99.90
54680;DHT22;40578;53.178;5.846;2023-09-19T14:37:02;17.40;99.90
54680;DHT22;40578;53.178;5.846;2023-09-19T14:39:27;17.50;99.90
54680;DHT22;40578;53.178;5.846;2023-09-19T14:41:54;17.50;99.90
54680;DHT22;40578;53.178;5.846;2023-09-19T14:44:19;17.40;99.90
54680;DHT22;40578;53.178;5.846;2023-09-19T14:46:45;17.60;99.90
54680;DHT22;40578;53.178;5.846;2023-09-19T14:49:11;17.40;99.90
54680;DHT22;40578;53.178;5.846;2023-09-19T14:51:38;17.40;99.90
54680;DHT22;40578;53.178;5.846;2023-09-19T14:54:05;17.40;99.90
54680;DHT22;40578;53.178;5.846;2023-09-19T14:56:33;17.50;99.90
54680;DHT22;40578;53.178;5.846;2023-09-19T14:58:59;17.50;99.90
54680;DHT22;40578;53.178;5.846;2023-09-19T15:01:25;17.80;99.90
54680;DHT22;40578;53.178;5.846;2023-09-19T15:03:50;17.70;99.90
54680;DHT22;40578;53.178;5.846;2023-09-19T15:06:16;17.70;99.90
54680;DHT22;40578;53.178;5.846;2023-09-19T15:08:47;17.80;99.90
54680;DHT22;40578;53.178;5.846;2023-09-19T15:11:16;17.80;99.90
54680;DHT22;40578;53.178;5.846;2023-09-19T15:13:44;17.80;99.90
54680;DHT22;40578;53.178;5.846;2023-09-19T15:16:10;17.80;99.90
54680;DHT22;40578;53.178;5.846;2023-09-19T15:18:44;17.70;99.90
54680;DHT22;40578;53.178;5.846;2023-09-19T15:21:13;17.70;99.90
54680;DHT22;40578;53.178;5.846;2023-09-19T15:23:40;17.70;99.90
54680;DHT22;40578;53.178;5.846;2023-09-19T15:26:07;17.70;99.90
54680;DHT22;40578;53.178;5.846;2023-09-19T15:28:39;17.60;99.90
54680;DHT22;40578;53.178;5.846;2023-09-19T15:31:10;17.80;99.90
54680;DHT22;40578;53.178;5.846;2023-09-19T15:33:36;17.70;99.90
54680;DHT22;40578;53.178;5.846;2023-09-19T15:36:06;17.60;99.90
54680;DHT22;40578;53.178;5.846;2023-09-19T15:38:56;17.70;99.90
54680;DHT22;40578;53.178;5.846;2023-09-19T15:41:29;17.50;99.90
54680;DHT22;40578;53.178;5.846;2023-09-19T15:43:56;17.50;99.90
54680;DHT22;40578;53.178;5.846;2023-09-19T15:46:22;17.30;99.90
54680;DHT22;40578;53.178;5.846;2023-09-19T15:48:48;17.20;99.90
54680;DHT22;40578;53.178;5.846;2023-09-19T15:51:14;17.30;99.90
54680;DHT22;40578;53.178;5.846;2023-09-19T15:53:45;17.30;99.90
54680;DHT22;40578;53.178;5.846;2023-09-19T15:56:11;17.10;99.90
54680;DHT22;40578;53.178;5.846;2023-09-19T15:58:37;17.20;99.90
54680;DHT22;40578;53.178;5.846;2023-09-19T16:01:08;17.10;99.90
54680;DHT22;40578;53.178;5.846;2023-09-19T16:03:42;17.10;99.90
54680;DHT22;40578;53.178;5.846;2023-09-19T16:06:18;17.10;99.90
54680;DHT22;40578;53.178;5.846;2023-09-19T16:08:46;17.00;99.90
54680;DHT22;40578;53.178;5.846;2023-09-19T16:11:16;17.00;99.90
54680;DHT22;40578;53.178;5.846;2023-09-19T16:13:42;17.00;99.90
54680;DHT22;40578;53.178;5.846;2023-09-19T16:16:09;17.00;99.90
54680;DHT22;40578;53.178;5.846;2023-09-19T16:18:38;16.90;99.90
54680;DHT22;40578;53.178;5.846;2023-09-19T16:21:08;16.90;99.90
54680;DHT22;40578;53.178;5.846;2023-09-19T16:23:34;16.90;99.90
54680;DHT22;40578;53.178;5.846;2023-09-19T16:26:08;16.90;99.90
54680;DHT22;40578;53.178;5.846;2023-09-19T16:28:37;16.80;99.90
54680;DHT22;40578;53.178;5.846;2023-09-19T16:31:04;16.80;99.90